Mormon Lake, AZ (86038)

3:36 PM MST on April 29, 2017 (GMT -0700)
MMRMA3 | | Change Station

Elev 7498 ft 34.94 °N, 111.52 °W | Updated 11 days ago

Partly Cloudy
Partly Cloudy
42.0 °F
Feels Like 42 °F
N
-
Wind Variable Wind from North

Today
High -- | Low -- °F
--% Chance of Precip.
Yesterday
High -- | Low -- °F
Precip. -- in
Pressure 29.95 in
Visibility 10.0 miles
Clouds Mostly Cloudy 9000 ft
Mostly Cloudy 11000 ft
Windchill 42 °F
Dew Point Not available.
Humidity Not available.
Rainfall 0.00 in
Snow Depth Not available.
5:36 AM 7:09 PM
Waxing Crescent, 17% visible
METAR KFLG 292157Z 34007G21KT 260V020 10SM BKN090 BKN110 11/M13 A3004 RMK AO2 SLP140 T01061133
Pressure 29.95 in
Visibility 10.0 miles
Clouds Mostly Cloudy 9000 ft
Mostly Cloudy 11000 ft
Windchill 42 °F
Dew Point Not available.
Humidity Not available.
Rainfall 0.00 in
Snow Depth Not available.
5:36 AM 7:09 PM
Waxing Crescent, 17% visible
METAR KFLG 292157Z 34007G21KT 260V020 10SM BKN090 BKN110 11/M13 A3004 RMK AO2 SLP140 T01061133

Get Severe Weather Alerts

Thanks for signing up!

Be on the lookout for a verification email in your inbox.

You'll start receiving the daily forecast at 8 AM.

×

10-Day Weather Forecast

Almanac

Astronomy

Apr. 29, 2017 Rise Set
Actual Time
Civil Twilight
Nautical Twilight
Astronomical Twilight
Moon
Length of Visible Light
Length of Day
Tomorrow will be .
, % of the Moon is Illuminated

Today's Extremes

State Highs State Lows

Community

WunderPhotos

WunderBlog® & News

Nearby

Air Quality

  Air Quality AQ Index Pollutant
Not available.

Snow Depth

Station Depth Elevation

Earthquake Activity

City Distance Mag. Time & Date
Minimum magnitude displayed is 2.5.

Coastal Water Temperatures

Place Temperature

Stations

Nearby Weather Stations

Station Location Temp. Windchill Dew Point Humidity Wind Precip. Elev Updated Type
                   

Watches & Warnings

There are currently no watches in effect.